sensor_id;sensor_type;location;lat;lon;timestamp;P1;durP1;ratioP1;P2;durP2;ratioP2
18526;SDS011;9393;42.158;24.748;2022-09-03T00:01:09;16.58;;;14.73;;
18526;SDS011;9393;42.158;24.748;2022-09-03T00:04:21;15.50;;;13.85;;
18526;SDS011;9393;42.158;24.748;2022-09-03T00:07:31;24.33;;;16.00;;
18526;SDS011;9393;42.158;24.748;2022-09-03T00:10:44;21.00;;;15.55;;
18526;SDS011;9393;42.158;24.748;2022-09-03T00:13:53;19.17;;;15.43;;
18526;SDS011;9393;42.158;24.748;2022-09-03T00:17:04;17.13;;;14.57;;
18526;SDS011;9393;42.158;24.748;2022-09-03T00:20:14;24.95;;;14.25;;
18526;SDS011;9393;42.158;24.748;2022-09-03T00:23:21;22.80;;;15.45;;
18526;SDS011;9393;42.158;24.748;2022-09-03T00:26:28;18.20;;;14.65;;
18526;SDS011;9393;42.158;24.748;2022-09-03T00:29:38;16.50;;;14.68;;
18526;SDS011;9393;42.158;24.748;2022-09-03T00:32:47;17.85;;;15.52;;
18526;SDS011;9393;42.158;24.748;2022-09-03T00:35:56;17.20;;;14.55;;
18526;SDS011;9393;42.158;24.748;2022-09-03T00:39:08;19.30;;;14.63;;
18526;SDS011;9393;42.158;24.748;2022-09-03T00:42:33;17.65;;;15.20;;
18526;SDS011;9393;42.158;24.748;2022-09-03T00:45:46;20.08;;;15.23;;
18526;SDS011;9393;42.158;24.748;2022-09-03T00:49:04;23.60;;;14.35;;
18526;SDS011;9393;42.158;24.748;2022-09-03T00:52:31;20.58;;;14.25;;
18526;SDS011;9393;42.158;24.748;2022-09-03T00:55:48;16.02;;;13.65;;
18526;SDS011;9393;42.158;24.748;2022-09-03T00:59:05;17.92;;;14.85;;
18526;SDS011;9393;42.158;24.748;2022-09-03T01:02:22;17.90;;;14.43;;
18526;SDS011;9393;42.158;24.748;2022-09-03T01:05:34;19.70;;;14.55;;
18526;SDS011;9393;42.158;24.748;2022-09-03T01:08:55;21.60;;;14.85;;
18526;SDS011;9393;42.158;24.748;2022-09-03T01:12:14;17.90;;;13.70;;
18526;SDS011;9393;42.158;24.748;2022-09-03T01:15:28;15.50;;;13.63;;
18526;SDS011;9393;42.158;24.748;2022-09-03T01:18:38;16.17;;;13.00;;
18526;SDS011;9393;42.158;24.748;2022-09-03T01:21:56;15.52;;;12.98;;
18526;SDS011;9393;42.158;24.748;2022-09-03T01:25:12;15.57;;;13.50;;
18526;SDS011;9393;42.158;24.748;2022-09-03T01:28:26;16.67;;;13.45;;
18526;SDS011;9393;42.158;24.748;2022-09-03T01:31:44;16.17;;;13.07;;
18526;SDS011;9393;42.158;24.748;2022-09-03T01:35:03;16.30;;;13.00;;
18526;SDS011;9393;42.158;24.748;2022-09-03T01:38:26;15.88;;;12.95;;
18526;SDS011;9393;42.158;24.748;2022-09-03T01:41:39;16.85;;;13.52;;
18526;SDS011;9393;42.158;24.748;2022-09-03T01:45:15;16.70;;;14.07;;
18526;SDS011;9393;42.158;24.748;2022-09-03T01:48:30;15.35;;;13.00;;
18526;SDS011;9393;42.158;24.748;2022-09-03T01:51:39;18.23;;;12.85;;
18526;SDS011;9393;42.158;24.748;2022-09-03T01:54:51;18.42;;;12.70;;
18526;SDS011;9393;42.158;24.748;2022-09-03T01:58:08;17.00;;;12.32;;
18526;SDS011;9393;42.158;24.748;2022-09-03T02:01:18;16.08;;;12.90;;
18526;SDS011;9393;42.158;24.748;2022-09-03T02:04:28;14.45;;;12.43;;
18526;SDS011;9393;42.158;24.748;2022-09-03T02:07:33;15.68;;;12.80;;
18526;SDS011;9393;42.158;24.748;2022-09-03T02:10:39;17.05;;;12.70;;
18526;SDS011;9393;42.158;24.748;2022-09-03T02:13:48;14.43;;;12.55;;
18526;SDS011;9393;42.158;24.748;2022-09-03T02:16:57;15.85;;;12.23;;
18526;SDS011;9393;42.158;24.748;2022-09-03T02:20:04;14.50;;;12.32;;
18526;SDS011;9393;42.158;24.748;2022-09-03T02:23:12;20.85;;;12.70;;
18526;SDS011;9393;42.158;24.748;2022-09-03T02:26:17;14.25;;;12.52;;
18526;SDS011;9393;42.158;24.748;2022-09-03T02:29:23;13.82;;;12.15;;
18526;SDS011;9393;42.158;24.748;2022-09-03T02:32:29;16.63;;;12.68;;
18526;SDS011;9393;42.158;24.748;2022-09-03T02:35:34;16.20;;;12.55;;
18526;SDS011;9393;42.158;24.748;2022-09-03T02:38:39;17.13;;;12.77;;
18526;SDS011;9393;42.158;24.748;2022-09-03T02:41:44;15.77;;;12.45;;
18526;SDS011;9393;42.158;24.748;2022-09-03T02:44:59;13.43;;;11.50;;
18526;SDS011;9393;42.158;24.748;2022-09-03T02:48:12;20.95;;;12.05;;
18526;SDS011;9393;42.158;24.748;2022-09-03T02:51:18;13.10;;;11.25;;
18526;SDS011;9393;42.158;24.748;2022-09-03T02:54:22;18.40;;;11.95;;
18526;SDS011;9393;42.158;24.748;2022-09-03T02:57:25;14.27;;;11.55;;
18526;SDS011;9393;42.158;24.748;2022-09-03T03:00:31;14.95;;;11.05;;
18526;SDS011;9393;42.158;24.748;2022-09-03T03:03:38;14.48;;;10.82;;
18526;SDS011;9393;42.158;24.748;2022-09-03T03:06:41;14.45;;;10.80;;
18526;SDS011;9393;42.158;24.748;2022-09-03T03:09:48;14.40;;;10.75;;
18526;SDS011;9393;42.158;24.748;2022-09-03T03:12:51;14.20;;;10.90;;
18526;SDS011;9393;42.158;24.748;2022-09-03T03:15:55;12.85;;;10.68;;
18526;SDS011;9393;42.158;24.748;2022-09-03T03:19:00;12.43;;;10.13;;
18526;SDS011;9393;42.158;24.748;2022-09-03T03:22:04;15.02;;;11.02;;
18526;SDS011;9393;42.158;24.748;2022-09-03T03:25:08;13.25;;;11.05;;
18526;SDS011;9393;42.158;24.748;2022-09-03T03:28:11;12.98;;;10.45;;
18526;SDS011;9393;42.158;24.748;2022-09-03T03:31:16;17.95;;;10.95;;
18526;SDS011;9393;42.158;24.748;2022-09-03T03:34:22;15.20;;;10.77;;
18526;SDS011;9393;42.158;24.748;2022-09-03T03:37:26;13.27;;;10.57;;
18526;SDS011;9393;42.158;24.748;2022-09-03T03:40:29;16.83;;;10.85;;
18526;SDS011;9393;42.158;24.748;2022-09-03T03:43:33;13.52;;;11.55;;
18526;SDS011;9393;42.158;24.748;2022-09-03T03:46:37;15.90;;;11.18;;
18526;SDS011;9393;42.158;24.748;2022-09-03T03:49:43;13.20;;;10.57;;
18526;SDS011;9393;42.158;24.748;2022-09-03T03:52:46;13.07;;;10.23;;
18526;SDS011;9393;42.158;24.748;2022-09-03T03:55:53;13.75;;;10.93;;
18526;SDS011;9393;42.158;24.748;2022-09-03T03:58:57;16.50;;;10.30;;
18526;SDS011;9393;42.158;24.748;2022-09-03T04:02:01;11.13;;;9.88;;
18526;SDS011;9393;42.158;24.748;2022-09-03T04:05:06;15.43;;;10.05;;
18526;SDS011;9393;42.158;24.748;2022-09-03T04:08:11;13.55;;;10.90;;
18526;SDS011;9393;42.158;24.748;2022-09-03T04:11:15;13.55;;;9.85;;
18526;SDS011;9393;42.158;24.748;2022-09-03T04:14:20;12.25;;;9.18;;
18526;SDS011;9393;42.158;24.748;2022-09-03T04:17:23;12.05;;;9.95;;
18526;SDS011;9393;42.158;24.748;2022-09-03T04:20:28;12.50;;;10.02;;
18526;SDS011;9393;42.158;24.748;2022-09-03T04:23:32;12.10;;;10.38;;
18526;SDS011;9393;42.158;24.748;2022-09-03T04:26:36;12.50;;;10.07;;
18526;SDS011;9393;42.158;24.748;2022-09-03T04:29:40;13.23;;;9.27;;
18526;SDS011;9393;42.158;24.748;2022-09-03T04:32:43;14.35;;;9.43;;
18526;SDS011;9393;42.158;24.748;2022-09-03T04:36:05;10.27;;;8.07;;
18526;SDS011;9393;42.158;24.748;2022-09-03T04:39:09;14.75;;;8.20;;
18526;SDS011;9393;42.158;24.748;2022-09-03T04:42:13;14.30;;;7.75;;
18526;SDS011;9393;42.158;24.748;2022-09-03T04:45:16;9.18;;;7.40;;
18526;SDS011;9393;42.158;24.748;2022-09-03T04:48:20;11.40;;;7.72;;
18526;SDS011;9393;42.158;24.748;2022-09-03T04:51:25;11.65;;;7.50;;
18526;SDS011;9393;42.158;24.748;2022-09-03T04:54:31;11.05;;;7.35;;
18526;SDS011;9393;42.158;24.748;2022-09-03T04:57:34;8.50;;;7.18;;
18526;SDS011;9393;42.158;24.748;2022-09-03T05:00:38;8.77;;;6.50;;
18526;SDS011;9393;42.158;24.748;2022-09-03T05:03:42;10.45;;;6.93;;
18526;SDS011;9393;42.158;24.748;2022-09-03T05:06:47;8.95;;;6.50;;
18526;SDS011;9393;42.158;24.748;2022-09-03T05:09:50;7.75;;;6.95;;
18526;SDS011;9393;42.158;24.748;2022-09-03T05:12:58;9.15;;;6.60;;
18526;SDS011;9393;42.158;24.748;2022-09-03T05:16:02;7.03;;;6.30;;
18526;SDS011;9393;42.158;24.748;2022-09-03T05:19:07;8.75;;;6.90;;
18526;SDS011;9393;42.158;24.748;2022-09-03T05:22:12;9.45;;;6.20;;
18526;SDS011;9393;42.158;24.748;2022-09-03T05:25:21;10.00;;;6.47;;
18526;SDS011;9393;42.158;24.748;2022-09-03T05:28:25;8.13;;;6.28;;
18526;SDS011;9393;42.158;24.748;2022-09-03T05:31:31;12.65;;;6.18;;
18526;SDS011;9393;42.158;24.748;2022-09-03T05:34:34;10.23;;;6.03;;
18526;SDS011;9393;42.158;24.748;2022-09-03T05:37:39;8.50;;;5.28;;
18526;SDS011;9393;42.158;24.748;2022-09-03T05:40:42;7.53;;;5.53;;
18526;SDS011;9393;42.158;24.748;2022-09-03T05:43:46;9.65;;;5.53;;
18526;SDS011;9393;42.158;24.748;2022-09-03T05:46:52;7.65;;;5.13;;
18526;SDS011;9393;42.158;24.748;2022-09-03T05:49:55;8.88;;;5.72;;
18526;SDS011;9393;42.158;24.748;2022-09-03T05:53:00;7.50;;;6.00;;
18526;SDS011;9393;42.158;24.748;2022-09-03T05:56:04;7.85;;;6.10;;
18526;SDS011;9393;42.158;24.748;2022-09-03T05:59:11;7.97;;;6.63;;
18526;SDS011;9393;42.158;24.748;2022-09-03T06:02:14;8.70;;;5.75;;
18526;SDS011;9393;42.158;24.748;2022-09-03T06:05:20;11.63;;;6.30;;
18526;SDS011;9393;42.158;24.748;2022-09-03T06:08:25;9.50;;;6.00;;
18526;SDS011;9393;42.158;24.748;2022-09-03T06:11:28;8.10;;;6.03;;
18526;SDS011;9393;42.158;24.748;2022-09-03T06:14:33;12.18;;;6.47;;
18526;SDS011;9393;42.158;24.748;2022-09-03T06:17:36;8.60;;;6.43;;
18526;SDS011;9393;42.158;24.748;2022-09-03T06:20:40;9.40;;;6.35;;
18526;SDS011;9393;42.158;24.748;2022-09-03T06:23:47;12.30;;;6.22;;
18526;SDS011;9393;42.158;24.748;2022-09-03T06:26:52;13.48;;;6.72;;
18526;SDS011;9393;42.158;24.748;2022-09-03T06:29:55;7.55;;;6.30;;
18526;SDS011;9393;42.158;24.748;2022-09-03T06:33:00;9.27;;;6.63;;
18526;SDS011;9393;42.158;24.748;2022-09-03T06:36:03;8.15;;;7.15;;
18526;SDS011;9393;42.158;24.748;2022-09-03T06:39:11;10.43;;;7.05;;
18526;SDS011;9393;42.158;24.748;2022-09-03T06:42:14;13.43;;;7.25;;
18526;SDS011;9393;42.158;24.748;2022-09-03T06:45:18;9.18;;;7.78;;
18526;SDS011;9393;42.158;24.748;2022-09-03T06:48:21;9.80;;;7.70;;
18526;SDS011;9393;42.158;24.748;2022-09-03T06:51:26;11.77;;;6.80;;
18526;SDS011;9393;42.158;24.748;2022-09-03T06:54:32;9.52;;;6.93;;
18526;SDS011;9393;42.158;24.748;2022-09-03T06:57:35;9.40;;;6.28;;
18526;SDS011;9393;42.158;24.748;2022-09-03T07:00:38;9.85;;;6.60;;
18526;SDS011;9393;42.158;24.748;2022-09-03T07:03:42;12.98;;;7.10;;
18526;SDS011;9393;42.158;24.748;2022-09-03T07:06:47;14.18;;;6.80;;
18526;SDS011;9393;42.158;24.748;2022-09-03T07:09:52;9.40;;;6.95;;
18526;SDS011;9393;42.158;24.748;2022-09-03T07:12:56;13.05;;;7.32;;
18526;SDS011;9393;42.158;24.748;2022-09-03T07:15:59;7.88;;;6.63;;
18526;SDS011;9393;42.158;24.748;2022-09-03T07:19:03;9.13;;;6.18;;
18526;SDS011;9393;42.158;24.748;2022-09-03T07:22:07;10.45;;;6.22;;
18526;SDS011;9393;42.158;24.748;2022-09-03T07:25:13;9.70;;;6.05;;
18526;SDS011;9393;42.158;24.748;2022-09-03T07:28:17;9.35;;;6.40;;
18526;SDS011;9393;42.158;24.748;2022-09-03T07:31:21;8.98;;;6.38;;
18526;SDS011;9393;42.158;24.748;2022-09-03T07:34:27;9.57;;;6.60;;
18526;SDS011;9393;42.158;24.748;2022-09-03T07:37:30;11.05;;;6.57;;
18526;SDS011;9393;42.158;24.748;2022-09-03T07:40:35;10.90;;;6.93;;
18526;SDS011;9393;42.158;24.748;2022-09-03T07:43:40;8.00;;;5.65;;
18526;SDS011;9393;42.158;24.748;2022-09-03T07:46:47;4.63;;;4.13;;
18526;SDS011;9393;42.158;24.748;2022-09-03T07:49:52;5.78;;;4.30;;
18526;SDS011;9393;42.158;24.748;2022-09-03T07:52:56;6.22;;;4.10;;
18526;SDS011;9393;42.158;24.748;2022-09-03T07:56:02;8.93;;;4.35;;
18526;SDS011;9393;42.158;24.748;2022-09-03T07:59:07;5.18;;;4.35;;
18526;SDS011;9393;42.158;24.748;2022-09-03T08:02:12;5.05;;;4.03;;
18526;SDS011;9393;42.158;24.748;2022-09-03T08:05:15;6.43;;;4.18;;
18526;SDS011;9393;42.158;24.748;2022-09-03T08:08:20;10.23;;;4.93;;
18526;SDS011;9393;42.158;24.748;2022-09-03T08:11:26;6.53;;;5.15;;
18526;SDS011;9393;42.158;24.748;2022-09-03T08:14:30;5.82;;;5.22;;
18526;SDS011;9393;42.158;24.748;2022-09-03T08:17:34;7.07;;;5.40;;
18526;SDS011;9393;42.158;24.748;2022-09-03T08:20:37;8.25;;;5.43;;
18526;SDS011;9393;42.158;24.748;2022-09-03T08:23:41;7.00;;;5.53;;
18526;SDS011;9393;42.158;24.748;2022-09-03T08:26:47;6.30;;;5.45;;
18526;SDS011;9393;42.158;24.748;2022-09-03T08:29:53;7.80;;;4.90;;
18526;SDS011;9393;42.158;24.748;2022-09-03T08:32:56;6.75;;;5.20;;
18526;SDS011;9393;42.158;24.748;2022-09-03T08:36:05;7.70;;;6.18;;
18526;SDS011;9393;42.158;24.748;2022-09-03T08:39:10;7.78;;;6.28;;
18526;SDS011;9393;42.158;24.748;2022-09-03T08:42:30;7.63;;;6.25;;
18526;SDS011;9393;42.158;24.748;2022-09-03T08:45:47;6.93;;;5.65;;
18526;SDS011;9393;42.158;24.748;2022-09-03T08:48:50;8.63;;;6.13;;
18526;SDS011;9393;42.158;24.748;2022-09-03T08:51:54;6.13;;;5.53;;
18526;SDS011;9393;42.158;24.748;2022-09-03T08:55:07;10.90;;;6.28;;
18526;SDS011;9393;42.158;24.748;2022-09-03T08:58:21;7.38;;;6.57;;
18526;SDS011;9393;42.158;24.748;2022-09-03T09:01:29;6.53;;;5.68;;
18526;SDS011;9393;42.158;24.748;2022-09-03T09:04:58;10.27;;;6.80;;
18526;SDS011;9393;42.158;24.748;2022-09-03T09:08:13;10.40;;;6.10;;
18526;SDS011;9393;42.158;24.748;2022-09-03T09:11:25;8.85;;;6.15;;
18526;SDS011;9393;42.158;24.748;2022-09-03T09:14:37;8.45;;;5.97;;
18526;SDS011;9393;42.158;24.748;2022-09-03T09:17:49;6.95;;;6.03;;
18526;SDS011;9393;42.158;24.748;2022-09-03T09:21:06;7.65;;;6.63;;
18526;SDS011;9393;42.158;24.748;2022-09-03T09:24:21;9.00;;;6.63;;
18526;SDS011;9393;42.158;24.748;2022-09-03T09:27:26;7.25;;;6.25;;
18526;SDS011;9393;42.158;24.748;2022-09-03T09:30:32;9.73;;;6.20;;
18526;SDS011;9393;42.158;24.748;2022-09-03T09:33:36;7.63;;;6.60;;
18526;SDS011;9393;42.158;24.748;2022-09-03T09:36:42;9.50;;;6.20;;
18526;SDS011;9393;42.158;24.748;2022-09-03T09:39:53;8.77;;;6.43;;
18526;SDS011;9393;42.158;24.748;2022-09-03T09:43:05;7.03;;;5.63;;
18526;SDS011;9393;42.158;24.748;2022-09-03T09:46:13;6.72;;;5.95;;
18526;SDS011;9393;42.158;24.748;2022-09-03T09:49:23;10.27;;;6.78;;
18526;SDS011;9393;42.158;24.748;2022-09-03T09:52:32;7.32;;;5.53;;
18526;SDS011;9393;42.158;24.748;2022-09-03T09:55:35;6.90;;;5.57;;
18526;SDS011;9393;42.158;24.748;2022-09-03T09:59:00;6.13;;;5.22;;
18526;SDS011;9393;42.158;24.748;2022-09-03T10:02:10;6.28;;;5.68;;
18526;SDS011;9393;42.158;24.748;2022-09-03T10:05:23;6.38;;;5.60;;
18526;SDS011;9393;42.158;24.748;2022-09-03T10:08:29;7.00;;;6.18;;
18526;SDS011;9393;42.158;24.748;2022-09-03T10:11:32;6.60;;;5.90;;
18526;SDS011;9393;42.158;24.748;2022-09-03T10:14:41;6.13;;;5.53;;
18526;SDS011;9393;42.158;24.748;2022-09-03T10:17:56;6.28;;;5.65;;
18526;SDS011;9393;42.158;24.748;2022-09-03T10:21:05;6.78;;;6.10;;
18526;SDS011;9393;42.158;24.748;2022-09-03T10:24:31;13.48;;;11.60;;
18526;SDS011;9393;42.158;24.748;2022-09-03T10:27:43;8.95;;;7.65;;
18526;SDS011;9393;42.158;24.748;2022-09-03T10:31:01;7.07;;;5.72;;
18526;SDS011;9393;42.158;24.748;2022-09-03T10:34:20;7.35;;;6.53;;
18526;SDS011;9393;42.158;24.748;2022-09-03T10:37:35;7.93;;;5.82;;
18526;SDS011;9393;42.158;24.748;2022-09-03T10:40:43;8.70;;;6.35;;
18526;SDS011;9393;42.158;24.748;2022-09-03T10:43:59;9.85;;;6.00;;
18526;SDS011;9393;42.158;24.748;2022-09-03T10:47:27;6.22;;;5.63;;
18526;SDS011;9393;42.158;24.748;2022-09-03T10:50:45;8.60;;;5.70;;
18526;SDS011;9393;42.158;24.748;2022-09-03T10:53:55;7.95;;;6.00;;
18526;SDS011;9393;42.158;24.748;2022-09-03T10:57:10;7.57;;;6.03;;
18526;SDS011;9393;42.158;24.748;2022-09-03T11:00:23;7.43;;;5.90;;
18526;SDS011;9393;42.158;24.748;2022-09-03T11:06:59;9.73;;;6.53;;
18526;SDS011;9393;42.158;24.748;2022-09-03T11:10:10;9.32;;;6.53;;
18526;SDS011;9393;42.158;24.748;2022-09-03T11:13:19;18.83;;;15.18;;
18526;SDS011;9393;42.158;24.748;2022-09-03T11:16:30;6.90;;;6.20;;
18526;SDS011;9393;42.158;24.748;2022-09-03T11:19:37;8.73;;;6.00;;
18526;SDS011;9393;42.158;24.748;2022-09-03T11:22:50;6.65;;;5.57;;
18526;SDS011;9393;42.158;24.748;2022-09-03T11:25:58;7.68;;;6.57;;
18526;SDS011;9393;42.158;24.748;2022-09-03T11:29:05;6.97;;;6.05;;
18526;SDS011;9393;42.158;24.748;2022-09-03T11:32:14;7.70;;;5.68;;
18526;SDS011;9393;42.158;24.748;2022-09-03T11:35:26;6.25;;;5.45;;
18526;SDS011;9393;42.158;24.748;2022-09-03T11:38:33;6.47;;;5.75;;
18526;SDS011;9393;42.158;24.748;2022-09-03T11:41:39;6.95;;;5.07;;
18526;SDS011;9393;42.158;24.748;2022-09-03T11:44:43;5.93;;;5.30;;
18526;SDS011;9393;42.158;24.748;2022-09-03T11:47:52;5.60;;;4.80;;
18526;SDS011;9393;42.158;24.748;2022-09-03T11:50:56;5.00;;;4.50;;
18526;SDS011;9393;42.158;24.748;2022-09-03T11:54:02;5.22;;;4.30;;
18526;SDS011;9393;42.158;24.748;2022-09-03T11:57:09;6.05;;;3.95;;
18526;SDS011;9393;42.158;24.748;2022-09-03T12:00:15;3.83;;;3.38;;
18526;SDS011;9393;42.158;24.748;2022-09-03T12:03:24;3.53;;;3.22;;
18526;SDS011;9393;42.158;24.748;2022-09-03T12:06:37;3.97;;;3.10;;
18526;SDS011;9393;42.158;24.748;2022-09-03T12:13:24;4.82;;;3.13;;
18526;SDS011;9393;42.158;24.748;2022-09-03T12:16:53;3.75;;;3.45;;
18526;SDS011;9393;42.158;24.748;2022-09-03T12:20:10;3.53;;;3.10;;
18526;SDS011;9393;42.158;24.748;2022-09-03T12:23:25;4.07;;;3.17;;
18526;SDS011;9393;42.158;24.748;2022-09-03T12:26:37;3.13;;;2.70;;
18526;SDS011;9393;42.158;24.748;2022-09-03T12:29:49;3.28;;;2.88;;
18526;SDS011;9393;42.158;24.748;2022-09-03T12:33:04;3.70;;;2.92;;
18526;SDS011;9393;42.158;24.748;2022-09-03T12:36:08;3.67;;;2.95;;
18526;SDS011;9393;42.158;24.748;2022-09-03T12:39:12;3.78;;;2.50;;
18526;SDS011;9393;42.158;24.748;2022-09-03T12:42:19;5.57;;;3.15;;
18526;SDS011;9393;42.158;24.748;2022-09-03T12:45:26;4.82;;;3.72;;
18526;SDS011;9393;42.158;24.748;2022-09-03T12:48:53;5.90;;;3.47;;
18526;SDS011;9393;42.158;24.748;2022-09-03T12:52:19;4.13;;;3.00;;
18526;SDS011;9393;42.158;24.748;2022-09-03T12:55:28;3.92;;;3.17;;
18526;SDS011;9393;42.158;24.748;2022-09-03T12:58:39;3.47;;;3.17;;
18526;SDS011;9393;42.158;24.748;2022-09-03T13:01:50;3.13;;;2.53;;
18526;SDS011;9393;42.158;24.748;2022-09-03T13:04:58;2.35;;;2.15;;
18526;SDS011;9393;42.158;24.748;2022-09-03T13:08:03;3.22;;;2.53;;
18526;SDS011;9393;42.158;24.748;2022-09-03T13:11:10;2.22;;;2.00;;
18526;SDS011;9393;42.158;24.748;2022-09-03T13:14:19;2.40;;;2.20;;
18526;SDS011;9393;42.158;24.748;2022-09-03T13:17:26;2.45;;;2.25;;
18526;SDS011;9393;42.158;24.748;2022-09-03T13:20:53;4.03;;;2.33;;
18526;SDS011;9393;42.158;24.748;2022-09-03T13:24:15;2.40;;;2.20;;
18526;SDS011;9393;42.158;24.748;2022-09-03T13:27:43;3.33;;;1.80;;
18526;SDS011;9393;42.158;24.748;2022-09-03T13:30:57;1.48;;;1.38;;
18526;SDS011;9393;42.158;24.748;2022-09-03T13:34:06;1.75;;;1.40;;
18526;SDS011;9393;42.158;24.748;2022-09-03T13:37:19;2.17;;;1.70;;
18526;SDS011;9393;42.158;24.748;2022-09-03T13:40:31;3.70;;;1.55;;
18526;SDS011;9393;42.158;24.748;2022-09-03T13:43:39;2.10;;;1.85;;
18526;SDS011;9393;42.158;24.748;2022-09-03T13:46:50;2.97;;;1.80;;
18526;SDS011;9393;42.158;24.748;2022-09-03T13:49:57;2.03;;;1.80;;
18526;SDS011;9393;42.158;24.748;2022-09-03T13:53:24;1.83;;;1.50;;
18526;SDS011;9393;42.158;24.748;2022-09-03T13:56:36;1.70;;;1.58;;
18526;SDS011;9393;42.158;24.748;2022-09-03T13:59:54;2.60;;;1.90;;
18526;SDS011;9393;42.158;24.748;2022-09-03T14:03:09;2.38;;;1.50;;
18526;SDS011;9393;42.158;24.748;2022-09-03T14:06:36;1.83;;;1.60;;
18526;SDS011;9393;42.158;24.748;2022-09-03T14:09:47;1.83;;;1.65;;
18526;SDS011;9393;42.158;24.748;2022-09-03T14:13:01;1.67;;;1.50;;
18526;SDS011;9393;42.158;24.748;2022-09-03T14:16:15;2.88;;;1.95;;
18526;SDS011;9393;42.158;24.748;2022-09-03T14:19:33;3.28;;;1.67;;
18526;SDS011;9393;42.158;24.748;2022-09-03T14:22:46;2.00;;;1.73;;
18526;SDS011;9393;42.158;24.748;2022-09-03T14:25:53;3.47;;;1.60;;
18526;SDS011;9393;42.158;24.748;2022-09-03T14:28:58;2.17;;;1.60;;
18526;SDS011;9393;42.158;24.748;2022-09-03T14:32:18;3.35;;;2.10;;
18526;SDS011;9393;42.158;24.748;2022-09-03T14:35:31;2.35;;;1.92;;
18526;SDS011;9393;42.158;24.748;2022-09-03T14:46:05;2.70;;;1.95;;
18526;SDS011;9393;42.158;24.748;2022-09-03T14:49:31;2.38;;;1.88;;
18526;SDS011;9393;42.158;24.748;2022-09-03T14:52:58;2.05;;;1.80;;
18526;SDS011;9393;42.158;24.748;2022-09-03T14:56:17;1.98;;;1.88;;
18526;SDS011;9393;42.158;24.748;2022-09-03T14:59:32;1.98;;;1.80;;
18526;SDS011;9393;42.158;24.748;2022-09-03T15:02:51;2.15;;;1.95;;
18526;SDS011;9393;42.158;24.748;2022-09-03T15:06:26;2.22;;;1.55;;
18526;SDS011;9393;42.158;24.748;2022-09-03T15:09:41;3.70;;;1.50;;
18526;SDS011;9393;42.158;24.748;2022-09-03T15:12:52;2.10;;;1.70;;
18526;SDS011;9393;42.158;24.748;2022-09-03T15:16:06;3.13;;;1.77;;
18526;SDS011;9393;42.158;24.748;2022-09-03T15:19:27;2.28;;;1.70;;
18526;SDS011;9393;42.158;24.748;2022-09-03T15:22:56;3.05;;;1.80;;
18526;SDS011;9393;42.158;24.748;2022-09-03T15:26:22;3.35;;;1.52;;
18526;SDS011;9393;42.158;24.748;2022-09-03T15:29:47;1.73;;;1.50;;
18526;SDS011;9393;42.158;24.748;2022-09-03T15:32:58;1.75;;;1.63;;
18526;SDS011;9393;42.158;24.748;2022-09-03T15:36:14;1.85;;;1.73;;
18526;SDS011;9393;42.158;24.748;2022-09-03T15:39:22;2.45;;;2.05;;
18526;SDS011;9393;42.158;24.748;2022-09-03T15:42:30;2.50;;;1.48;;
18526;SDS011;9393;42.158;24.748;2022-09-03T15:45:34;3.40;;;1.75;;
18526;SDS011;9393;42.158;24.748;2022-09-03T15:48:44;2.45;;;2.17;;
18526;SDS011;9393;42.158;24.748;2022-09-03T15:52:05;3.25;;;2.05;;
18526;SDS011;9393;42.158;24.748;2022-09-03T15:55:21;2.85;;;1.90;;
18526;SDS011;9393;42.158;24.748;2022-09-03T15:58:31;3.60;;;1.90;;
18526;SDS011;9393;42.158;24.748;2022-09-03T16:01:39;2.90;;;2.53;;
18526;SDS011;9393;42.158;24.748;2022-09-03T16:04:55;2.50;;;2.30;;
18526;SDS011;9393;42.158;24.748;2022-09-03T16:08:09;2.25;;;2.05;;
18526;SDS011;9393;42.158;24.748;2022-09-03T16:11:32;4.22;;;2.85;;
18526;SDS011;9393;42.158;24.748;2022-09-03T16:14:42;4.18;;;2.85;;
18526;SDS011;9393;42.158;24.748;2022-09-03T16:17:52;3.00;;;2.35;;
18526;SDS011;9393;42.158;24.748;2022-09-03T16:21:03;3.30;;;2.20;;
18526;SDS011;9393;42.158;24.748;2022-09-03T16:24:11;4.78;;;2.60;;
18526;SDS011;9393;42.158;24.748;2022-09-03T16:27:21;3.05;;;2.65;;
18526;SDS011;9393;42.158;24.748;2022-09-03T16:30:30;2.70;;;2.30;;
18526;SDS011;9393;42.158;24.748;2022-09-03T16:33:47;2.75;;;2.40;;
18526;SDS011;9393;42.158;24.748;2022-09-03T16:37:00;2.65;;;2.42;;
18526;SDS011;9393;42.158;24.748;2022-09-03T16:40:12;4.07;;;2.40;;
18526;SDS011;9393;42.158;24.748;2022-09-03T16:43:29;3.58;;;2.35;;
18526;SDS011;9393;42.158;24.748;2022-09-03T16:46:44;3.88;;;2.55;;
18526;SDS011;9393;42.158;24.748;2022-09-03T16:49:58;3.67;;;2.80;;
18526;SDS011;9393;42.158;24.748;2022-09-03T16:53:19;2.88;;;2.40;;
18526;SDS011;9393;42.158;24.748;2022-09-03T16:56:38;3.78;;;2.53;;
18526;SDS011;9393;42.158;24.748;2022-09-03T16:59:56;3.97;;;2.25;;
18526;SDS011;9393;42.158;24.748;2022-09-03T17:03:13;5.45;;;2.47;;
18526;SDS011;9393;42.158;24.748;2022-09-03T17:06:38;4.43;;;3.00;;
18526;SDS011;9393;42.158;24.748;2022-09-03T17:09:51;8.77;;;4.88;;
18526;SDS011;9393;42.158;24.748;2022-09-03T17:13:09;153.02;;;82.30;;
18526;SDS011;9393;42.158;24.748;2022-09-03T17:16:26;118.43;;;67.38;;
18526;SDS011;9393;42.158;24.748;2022-09-03T17:19:42;135.40;;;82.55;;
18526;SDS011;9393;42.158;24.748;2022-09-03T17:22:56;88.22;;;59.35;;
18526;SDS011;9393;42.158;24.748;2022-09-03T17:26:16;16.95;;;13.52;;
18526;SDS011;9393;42.158;24.748;2022-09-03T17:29:34;2.92;;;2.53;;
18526;SDS011;9393;42.158;24.748;2022-09-03T17:32:52;4.00;;;3.08;;
18526;SDS011;9393;42.158;24.748;2022-09-03T17:36:11;5.38;;;3.47;;
18526;SDS011;9393;42.158;24.748;2022-09-03T17:39:27;16.80;;;9.88;;
18526;SDS011;9393;42.158;24.748;2022-09-03T17:42:55;4.25;;;3.65;;
18526;SDS011;9393;42.158;24.748;2022-09-03T17:46:09;6.78;;;3.80;;
18526;SDS011;9393;42.158;24.748;2022-09-03T17:49:24;4.22;;;3.50;;
18526;SDS011;9393;42.158;24.748;2022-09-03T17:52:38;6.60;;;4.30;;
18526;SDS011;9393;42.158;24.748;2022-09-03T17:55:53;5.38;;;4.82;;
18526;SDS011;9393;42.158;24.748;2022-09-03T17:59:01;5.82;;;4.53;;
18526;SDS011;9393;42.158;24.748;2022-09-03T18:02:16;5.30;;;4.10;;
18526;SDS011;9393;42.158;24.748;2022-09-03T18:05:31;4.10;;;3.70;;
18526;SDS011;9393;42.158;24.748;2022-09-03T18:08:47;5.63;;;3.67;;
18526;SDS011;9393;42.158;24.748;2022-09-03T18:12:01;4.70;;;4.20;;
18526;SDS011;9393;42.158;24.748;2022-09-03T18:15:11;7.00;;;5.85;;
18526;SDS011;9393;42.158;24.748;2022-09-03T18:18:23;5.25;;;4.65;;
18526;SDS011;9393;42.158;24.748;2022-09-03T18:21:31;5.80;;;4.60;;
18526;SDS011;9393;42.158;24.748;2022-09-03T18:24:58;4.30;;;3.67;;
18526;SDS011;9393;42.158;24.748;2022-09-03T18:28:21;4.78;;;4.32;;
18526;SDS011;9393;42.158;24.748;2022-09-03T18:31:49;4.60;;;4.10;;
18526;SDS011;9393;42.158;24.748;2022-09-03T18:35:09;6.35;;;4.55;;
18526;SDS011;9393;42.158;24.748;2022-09-03T18:38:32;5.30;;;4.80;;
18526;SDS011;9393;42.158;24.748;2022-09-03T18:41:58;6.10;;;4.88;;
18526;SDS011;9393;42.158;24.748;2022-09-03T18:45:25;6.00;;;4.32;;
18526;SDS011;9393;42.158;24.748;2022-09-03T18:49:14;8.93;;;4.50;;
18526;SDS011;9393;42.158;24.748;2022-09-03T18:52:46;8.50;;;4.55;;
18526;SDS011;9393;42.158;24.748;2022-09-03T18:56:14;5.80;;;4.68;;
18526;SDS011;9393;42.158;24.748;2022-09-03T18:59:51;6.28;;;4.53;;
18526;SDS011;9393;42.158;24.748;2022-09-03T19:03:35;30.50;;;20.17;;
18526;SDS011;9393;42.158;24.748;2022-09-03T19:07:06;91.93;;;52.45;;
18526;SDS011;9393;42.158;24.748;2022-09-03T19:10:33;31.25;;;19.17;;
18526;SDS011;9393;42.158;24.748;2022-09-03T19:14:01;8.20;;;6.47;;
18526;SDS011;9393;42.158;24.748;2022-09-03T19:17:39;18.27;;;13.27;;